createdAt,value
2022-09-30T00:02:06.484Z,6.49
2022-09-30T00:04:32.847Z,6.50
2022-09-30T00:06:59.177Z,6.54
2022-09-30T00:09:25.671Z,6.59
2022-09-30T00:11:53.585Z,6.60
2022-09-30T00:14:20.721Z,6.58
2022-09-30T00:16:47.072Z,6.56
2022-09-30T00:19:13.801Z,6.54
2022-09-30T00:21:40.157Z,6.56
2022-09-30T00:24:06.788Z,6.51
2022-09-30T00:26:33.595Z,6.47
2022-09-30T00:29:01.593Z,6.35
2022-09-30T00:31:29.594Z,6.32
2022-09-30T00:33:55.972Z,6.33
2022-09-30T00:36:22.267Z,6.35
2022-09-30T00:38:48.595Z,6.31
2022-09-30T00:41:14.915Z,6.33
2022-09-30T00:43:42.402Z,6.23
2022-09-30T00:46:15.852Z,6.13
2022-09-30T00:48:42.552Z,6.07
2022-09-30T00:51:09.058Z,5.98
2022-09-30T00:53:39.332Z,6.00
2022-09-30T00:56:07.426Z,6.05
2022-09-30T00:58:35.842Z,6.07
2022-09-30T01:01:02.947Z,6.08
2022-09-30T01:03:31.844Z,6.07
2022-09-30T01:05:58.196Z,6.07
2022-09-30T01:08:24.676Z,6.07
2022-09-30T01:10:51.057Z,6.08
2022-09-30T01:13:18.046Z,6.06
2022-09-30T01:15:55.935Z,6.03
2022-09-30T01:18:28.511Z,5.95
2022-09-30T01:21:08.014Z,5.79
2022-09-30T01:23:42.941Z,5.77
2022-09-30T01:26:20.102Z,5.81
2022-09-30T01:28:58.570Z,5.84
2022-09-30T01:31:33.088Z,5.85
2022-09-30T01:34:04.730Z,5.85
2022-09-30T01:36:39.511Z,5.83
2022-09-30T01:39:16.788Z,5.82
2022-09-30T01:41:46.603Z,5.78
2022-09-30T01:44:16.673Z,5.75
2022-09-30T01:46:47.961Z,5.68
2022-09-30T01:49:20.367Z,5.56
2022-09-30T01:51:53.307Z,5.55
2022-09-30T01:54:21.671Z,5.57
2022-09-30T01:56:49.976Z,5.52
2022-09-30T01:59:18.436Z,5.46
2022-09-30T02:01:48.583Z,5.51
2022-09-30T02:04:17.326Z,5.56
2022-09-30T02:06:46.050Z,5.61
2022-09-30T02:09:14.674Z,5.63
2022-09-30T02:11:41.634Z,5.58
2022-09-30T02:14:11.704Z,5.56
2022-09-30T02:16:39.038Z,5.57
2022-09-30T02:19:11.233Z,5.58
2022-09-30T02:21:40.285Z,5.59
2022-09-30T02:24:10.137Z,5.61
2022-09-30T02:26:38.363Z,5.60
2022-09-30T02:29:06.764Z,5.58
2022-09-30T02:31:34.860Z,5.57
2022-09-30T02:34:04.962Z,5.55
2022-09-30T02:36:34.560Z,5.56
2022-09-30T02:39:02.880Z,5.58
2022-09-30T02:41:32.005Z,5.56
2022-09-30T02:43:59.918Z,5.54
2022-09-30T02:46:31.765Z,5.52
2022-09-30T02:49:01.384Z,5.55
2022-09-30T02:51:34.443Z,5.55
2022-09-30T02:54:03.474Z,5.53
2022-09-30T02:56:34.646Z,5.51
2022-09-30T02:59:00.989Z,5.51
2022-09-30T03:01:27.296Z,5.51
2022-09-30T03:03:55.115Z,5.50
2022-09-30T03:06:21.732Z,5.51
2022-09-30T03:08:48.305Z,5.49
2022-09-30T03:11:17.103Z,5.49
2022-09-30T03:13:58.311Z,5.46
2022-09-30T03:16:30.907Z,5.47
2022-09-30T03:19:05.525Z,5.44
2022-09-30T03:21:44.946Z,5.31
2022-09-30T03:24:38.311Z,5.16
2022-09-30T03:27:12.360Z,5.11
2022-09-30T03:29:45.199Z,5.16
2022-09-30T03:32:17.516Z,5.20
2022-09-30T03:34:55.415Z,5.23
2022-09-30T03:37:25.695Z,5.23
2022-09-30T03:39:56.763Z,5.26
2022-09-30T03:42:27.202Z,5.27
2022-09-30T03:44:57.652Z,5.26
2022-09-30T03:47:25.220Z,5.29
2022-09-30T03:49:54.195Z,5.28
2022-09-30T03:52:20.730Z,5.30
2022-09-30T03:54:48.183Z,5.31
2022-09-30T03:57:14.468Z,5.32
2022-09-30T03:59:42.126Z,5.32
2022-09-30T04:02:08.830Z,5.29
2022-09-30T04:04:35.145Z,5.29
2022-09-30T04:07:01.446Z,5.26
2022-09-30T04:09:27.777Z,5.22
2022-09-30T04:11:54.105Z,5.20
2022-09-30T04:14:20.377Z,5.22
2022-09-30T04:16:51.807Z,5.20
2022-09-30T04:19:20.093Z,5.19
2022-09-30T04:21:46.463Z,5.19
2022-09-30T04:24:12.721Z,5.18
2022-09-30T04:26:39.011Z,5.10
2022-09-30T04:29:05.323Z,4.98
2022-09-30T04:31:31.701Z,4.92
2022-09-30T04:33:59.391Z,4.90
2022-09-30T04:36:25.686Z,4.92
2022-09-30T04:38:51.976Z,4.95
2022-09-30T04:41:18.275Z,4.87
2022-09-30T04:43:44.938Z,4.78
2022-09-30T04:46:11.230Z,4.78
2022-09-30T04:48:37.544Z,4.78
2022-09-30T04:51:05.331Z,4.78
2022-09-30T04:53:31.637Z,4.82
2022-09-30T04:55:58.663Z,4.89
2022-09-30T04:58:24.957Z,4.93
2022-09-30T05:00:51.297Z,4.97
2022-09-30T05:03:17.639Z,5.01
2022-09-30T05:05:44.287Z,5.01
2022-09-30T05:08:11.899Z,5.02
2022-09-30T05:10:38.191Z,5.04
2022-09-30T05:13:04.475Z,5.05
2022-09-30T05:15:30.754Z,5.04
2022-09-30T05:17:57.055Z,5.06
2022-09-30T05:20:23.355Z,5.05
2022-09-30T05:22:53.640Z,5.06
2022-09-30T05:25:21.287Z,5.04
2022-09-30T05:27:48.392Z,5.05
2022-09-30T05:30:14.685Z,5.06
2022-09-30T05:32:40.954Z,5.05
2022-09-30T05:35:07.727Z,5.04
2022-09-30T05:37:34.016Z,5.05
2022-09-30T05:40:00.437Z,5.05
2022-09-30T05:42:28.069Z,4.99
2022-09-30T05:44:54.330Z,5.01
2022-09-30T05:47:20.612Z,5.01
2022-09-30T05:49:46.894Z,5.01
2022-09-30T05:52:13.184Z,5.01
2022-09-30T05:54:39.465Z,5.00
2022-09-30T05:57:05.933Z,5.02
2022-09-30T05:59:33.578Z,5.03
2022-09-30T06:01:59.967Z,5.06
2022-09-30T06:04:26.363Z,5.07
2022-09-30T06:06:52.628Z,5.12
2022-09-30T06:09:18.952Z,5.17
2022-09-30T06:11:45.287Z,5.19
2022-09-30T06:14:11.587Z,5.23
2022-09-30T06:16:39.458Z,5.26
2022-09-30T06:19:05.777Z,5.31
2022-09-30T06:21:32.060Z,5.34
2022-09-30T06:23:58.359Z,5.38
2022-09-30T06:26:24.630Z,5.43
2022-09-30T06:28:50.912Z,5.48
2022-09-30T06:31:17.252Z,5.54
2022-09-30T06:33:44.881Z,5.58
2022-09-30T06:36:11.189Z,5.63
2022-09-30T06:38:37.534Z,5.69
2022-09-30T06:41:04.257Z,5.75
2022-09-30T06:43:34.363Z,5.81
2022-09-30T06:46:15.292Z,5.88
2022-09-30T06:48:45.196Z,5.94
2022-09-30T06:51:11.492Z,6.01
2022-09-30T06:53:38.102Z,6.06
2022-09-30T06:56:04.423Z,6.14
2022-09-30T06:58:30.704Z,6.20
2022-09-30T07:00:57.403Z,6.28
2022-09-30T07:03:24.834Z,6.36
2022-09-30T07:05:56.098Z,6.43
2022-09-30T07:08:22.475Z,6.48
2022-09-30T07:10:48.769Z,6.54
2022-09-30T07:13:15.061Z,6.58
2022-09-30T07:15:41.778Z,6.64
2022-09-30T07:18:08.126Z,6.69
2022-09-30T07:20:34.387Z,6.74
2022-09-30T07:23:01.999Z,6.82
2022-09-30T07:25:28.301Z,6.90
2022-09-30T07:27:54.589Z,6.97
2022-09-30T07:30:27.066Z,7.05
2022-09-30T07:32:53.803Z,7.15
2022-09-30T07:35:20.096Z,7.25
2022-09-30T07:37:46.362Z,7.32
2022-09-30T07:40:13.994Z,7.42
2022-09-30T07:42:40.515Z,7.47
2022-09-30T07:45:07.152Z,7.54
2022-09-30T07:47:33.444Z,7.65
2022-09-30T07:49:59.723Z,7.73
2022-09-30T07:52:25.980Z,7.83
2022-09-30T07:54:52.281Z,7.87
2022-09-30T07:57:19.884Z,7.95
2022-09-30T07:59:46.162Z,8.05
2022-09-30T08:02:14.066Z,8.16
2022-09-30T08:04:43.720Z,8.21
2022-09-30T08:07:10.754Z,8.30
2022-09-30T08:09:37.123Z,8.38
2022-09-30T08:12:03.532Z,8.46
2022-09-30T08:14:31.167Z,8.55
2022-09-30T08:16:57.460Z,8.67
2022-09-30T08:19:24.486Z,8.78
2022-09-30T08:21:50.905Z,8.95
2022-09-30T08:24:17.225Z,9.03
2022-09-30T08:26:43.583Z,9.17
2022-09-30T08:29:10.286Z,9.26
2022-09-30T08:31:37.945Z,9.34
2022-09-30T08:34:04.238Z,9.43
2022-09-30T08:36:30.522Z,9.54
2022-09-30T08:38:56.875Z,9.64
2022-09-30T08:41:29.024Z,9.76
2022-09-30T08:44:01.218Z,9.85
2022-09-30T08:46:35.448Z,9.99
2022-09-30T08:49:06.542Z,10.06
2022-09-30T08:51:35.415Z,10.18
2022-09-30T08:54:05.460Z,10.27
2022-09-30T08:56:32.240Z,10.40
2022-09-30T08:59:01.187Z,10.49
2022-09-30T09:01:30.469Z,10.57
2022-09-30T09:03:57.153Z,10.68
2022-09-30T09:06:29.479Z,10.81
2022-09-30T09:09:04.233Z,10.89
2022-09-30T09:11:42.700Z,10.98
2022-09-30T09:14:20.269Z,11.09
2022-09-30T09:16:53.960Z,11.18
2022-09-30T09:19:23.527Z,11.27
2022-09-30T09:21:53.024Z,11.34
2022-09-30T09:24:20.659Z,11.43
2022-09-30T09:26:47.917Z,11.51
2022-09-30T09:29:32.353Z,11.64
2022-09-30T09:31:58.776Z,11.78
2022-09-30T09:34:25.563Z,11.90
2022-09-30T09:37:02.844Z,12.00
2022-09-30T09:39:41.172Z,12.10
2022-09-30T09:42:19.361Z,12.21
2022-09-30T09:44:50.796Z,12.33
2022-09-30T09:47:17.113Z,12.45
2022-09-30T09:49:44.008Z,12.52
2022-09-30T09:52:28.847Z,12.60
2022-09-30T09:54:56.798Z,12.67
2022-09-30T09:57:24.070Z,12.75
2022-09-30T09:59:57.565Z,12.81
2022-09-30T10:02:25.325Z,12.87
2022-09-30T10:04:51.941Z,13.00
2022-09-30T10:07:19.954Z,13.12
2022-09-30T10:09:46.229Z,13.24
2022-09-30T10:12:25.844Z,13.32
2022-09-30T10:14:55.490Z,13.38
2022-09-30T10:17:22.814Z,13.46
2022-09-30T10:19:50.367Z,13.51
2022-09-30T10:22:20.397Z,13.58
2022-09-30T10:24:46.816Z,13.68
2022-09-30T10:27:27.436Z,13.79
2022-09-30T10:29:53.786Z,13.89
2022-09-30T10:32:20.624Z,14.01
2022-09-30T10:34:53.876Z,14.07
2022-09-30T10:37:21.997Z,14.09
2022-09-30T10:39:53.466Z,14.17
2022-09-30T10:42:25.739Z,14.21
2022-09-30T10:44:55.716Z,14.26
2022-09-30T10:47:23.011Z,14.27
2022-09-30T10:49:51.297Z,14.29
2022-09-30T10:52:18.881Z,14.33
2022-09-30T10:54:49.684Z,14.36
2022-09-30T10:57:18.723Z,14.41
2022-09-30T10:59:45.542Z,14.48
2022-09-30T11:02:19.145Z,14.47
2022-09-30T11:04:50.032Z,14.49
2022-09-30T11:07:21.536Z,14.54
2022-09-30T11:09:50.609Z,14.53
2022-09-30T11:12:20.190Z,14.41
2022-09-30T11:14:49.100Z,14.38
2022-09-30T11:17:25.822Z,14.44
2022-09-30T11:19:55.840Z,14.45
2022-09-30T11:22:33.633Z,14.46
2022-09-30T11:25:00.269Z,14.42
2022-09-30T11:27:31.466Z,14.44
2022-09-30T11:30:08.841Z,14.51
2022-09-30T11:32:51.388Z,14.47
2022-09-30T11:35:28.608Z,14.38
2022-09-30T11:38:00.275Z,14.25
2022-09-30T11:40:37.937Z,14.19
2022-09-30T11:43:08.489Z,14.23
2022-09-30T11:45:42.133Z,14.22
2022-09-30T11:48:18.096Z,14.23
2022-09-30T11:50:56.947Z,14.21
2022-09-30T11:53:28.156Z,14.34
2022-09-30T11:56:06.234Z,14.51
2022-09-30T11:58:41.547Z,14.71
2022-09-30T12:01:13.923Z,14.88
2022-09-30T12:03:43.770Z,15.02
2022-09-30T12:06:13.502Z,15.12
2022-09-30T12:08:44.208Z,15.22
2022-09-30T12:11:12.072Z,15.30
2022-09-30T12:13:41.026Z,15.43
2022-09-30T12:16:11.219Z,15.56
2022-09-30T12:18:39.226Z,15.65
2022-09-30T12:21:12.277Z,15.71
2022-09-30T12:23:43.141Z,15.68
2022-09-30T12:26:11.483Z,15.65
2022-09-30T12:28:41.078Z,15.64
2022-09-30T12:31:16.314Z,15.64
2022-09-30T12:33:50.585Z,15.69
2022-09-30T12:36:25.428Z,15.78
2022-09-30T12:39:08.900Z,15.84
2022-09-30T12:41:49.110Z,15.84
2022-09-30T12:44:37.718Z,15.78
2022-09-30T12:47:13.913Z,15.73
2022-09-30T12:49:41.587Z,15.75
2022-09-30T12:52:13.127Z,15.83
2022-09-30T12:54:41.364Z,15.87
2022-09-30T12:57:08.403Z,15.89
2022-09-30T12:59:37.461Z,15.87
2022-09-30T13:02:05.080Z,15.89
2022-09-30T13:04:32.502Z,15.93
2022-09-30T13:07:12.963Z,15.90
2022-09-30T13:09:54.149Z,15.85
2022-09-30T13:12:24.764Z,15.74
2022-09-30T13:15:12.327Z,15.68
2022-09-30T13:17:38.686Z,15.58
2022-09-30T13:20:34.136Z,15.51
2022-09-30T13:23:01.746Z,15.48
2022-09-30T13:25:48.052Z,15.47
2022-09-30T13:28:27.438Z,15.54
2022-09-30T13:31:08.632Z,15.58
2022-09-30T13:33:42.592Z,15.57
2022-09-30T13:36:16.803Z,15.51
2022-09-30T13:38:44.443Z,15.46
2022-09-30T13:41:16.672Z,15.41
2022-09-30T13:43:45.094Z,15.36
2022-09-30T13:46:14.235Z,15.30
2022-09-30T13:48:42.176Z,15.32
2022-09-30T13:51:12.000Z,15.33
2022-09-30T13:53:40.093Z,15.35
2022-09-30T13:56:09.086Z,15.38
2022-09-30T13:58:43.026Z,15.33
2022-09-30T14:01:13.315Z,15.27
2022-09-30T14:03:49.061Z,15.27
2022-09-30T14:06:21.799Z,15.33
2022-09-30T14:09:05.841Z,15.33
2022-09-30T14:11:40.499Z,15.32
2022-09-30T14:14:15.847Z,15.33
2022-09-30T14:16:55.157Z,15.30
2022-09-30T14:19:32.151Z,15.33
2022-09-30T14:22:02.003Z,15.38
2022-09-30T14:24:33.857Z,15.45
2022-09-30T14:27:13.277Z,15.50
2022-09-30T14:29:43.667Z,15.51
2022-09-30T14:32:11.283Z,15.46
2022-09-30T14:34:38.054Z,15.41
2022-09-30T14:37:04.560Z,15.39
2022-09-30T14:39:32.268Z,15.37
2022-09-30T14:41:59.961Z,15.33
2022-09-30T14:44:30.122Z,15.34
2022-09-30T14:46:56.501Z,15.38
2022-09-30T14:49:25.553Z,15.47
2022-09-30T14:51:51.842Z,15.57
2022-09-30T14:54:19.234Z,15.63
2022-09-30T14:56:45.669Z,15.67
2022-09-30T14:59:16.060Z,15.71
2022-09-30T15:01:44.165Z,15.71
2022-09-30T15:04:12.640Z,15.60
2022-09-30T15:06:42.895Z,15.52
2022-09-30T15:09:15.794Z,15.43
2022-09-30T15:11:42.122Z,15.30
2022-09-30T15:14:11.601Z,15.22
2022-09-30T15:16:44.419Z,15.18
2022-09-30T15:19:17.116Z,15.10
2022-09-30T15:21:43.825Z,15.07
2022-09-30T15:24:10.833Z,15.08
2022-09-30T15:26:37.324Z,15.06
2022-09-30T15:29:04.195Z,15.03
2022-09-30T15:31:31.700Z,15.03
2022-09-30T15:34:01.182Z,15.11
2022-09-30T15:36:28.921Z,15.12
2022-09-30T15:38:55.503Z,15.12
2022-09-30T15:41:21.927Z,15.19
2022-09-30T15:43:49.322Z,15.26
2022-09-30T15:46:20.411Z,15.42
2022-09-30T15:48:47.198Z,15.37
2022-09-30T15:51:23.811Z,15.27
2022-09-30T15:53:51.538Z,15.19
2022-09-30T15:56:23.629Z,15.15
2022-09-30T15:58:59.375Z,15.10
2022-09-30T16:01:26.758Z,15.03
2022-09-30T16:03:54.390Z,15.03
2022-09-30T16:06:24.251Z,14.91
2022-09-30T16:08:53.653Z,14.82
2022-09-30T16:11:21.733Z,14.81
2022-09-30T16:13:49.029Z,14.71
2022-09-30T16:16:19.670Z,14.70
2022-09-30T16:18:46.138Z,14.68
2022-09-30T16:21:27.329Z,14.66
2022-09-30T16:23:55.034Z,14.66
2022-09-30T16:26:21.857Z,14.61
2022-09-30T16:28:48.132Z,14.53
2022-09-30T16:31:14.666Z,14.55
2022-09-30T16:33:42.104Z,14.47
2022-09-30T16:36:08.756Z,14.40
2022-09-30T16:38:35.124Z,14.32
2022-09-30T16:41:02.946Z,14.24
2022-09-30T16:43:29.592Z,14.16
2022-09-30T16:45:56.713Z,14.06
2022-09-30T16:48:23.092Z,13.98
2022-09-30T16:50:50.037Z,13.94
2022-09-30T16:53:16.317Z,13.87
2022-09-30T16:55:42.610Z,13.78
2022-09-30T16:58:11.863Z,13.72
2022-09-30T17:00:40.344Z,13.66
2022-09-30T17:03:06.633Z,13.58
2022-09-30T17:05:32.916Z,13.53
2022-09-30T17:07:59.690Z,13.46
2022-09-30T17:10:26.948Z,13.39
2022-09-30T17:12:53.257Z,13.33
2022-09-30T17:15:20.909Z,13.27
2022-09-30T17:17:47.433Z,13.19
2022-09-30T17:20:14.178Z,13.11
2022-09-30T17:22:40.535Z,13.05
2022-09-30T17:25:07.600Z,12.98
2022-09-30T17:27:33.886Z,12.91
2022-09-30T17:30:00.186Z,12.84
2022-09-30T17:32:27.873Z,12.76
2022-09-30T17:34:54.159Z,12.71
2022-09-30T17:37:20.453Z,12.64
2022-09-30T17:39:46.733Z,12.56
2022-09-30T17:42:13.538Z,12.50
2022-09-30T17:44:39.841Z,12.46
2022-09-30T17:47:06.240Z,12.42
2022-09-30T17:49:34.738Z,12.38
2022-09-30T17:52:01.276Z,12.37
2022-09-30T17:54:28.350Z,12.36
2022-09-30T17:56:55.084Z,12.36
2022-09-30T17:59:21.380Z,12.32
2022-09-30T18:01:48.278Z,12.29
2022-09-30T18:04:14.633Z,12.25
2022-09-30T18:06:42.279Z,12.20
2022-09-30T18:09:08.578Z,12.17
2022-09-30T18:11:39.363Z,12.13
2022-09-30T18:14:10.420Z,12.08
2022-09-30T18:16:36.778Z,12.05
2022-09-30T18:19:04.357Z,12.02
2022-09-30T18:21:31.209Z,11.99
2022-09-30T18:23:59.086Z,11.99
2022-09-30T18:26:26.043Z,11.99
2022-09-30T18:28:52.355Z,11.99
2022-09-30T18:31:19.151Z,11.98
2022-09-30T18:33:51.480Z,11.93
2022-09-30T18:36:18.049Z,11.87
2022-09-30T18:38:44.323Z,11.83
2022-09-30T18:41:11.940Z,11.77
2022-09-30T18:43:38.252Z,11.73
2022-09-30T18:46:04.933Z,11.67
2022-09-30T18:48:31.255Z,11.61
2022-09-30T18:51:01.440Z,11.57
2022-09-30T18:53:27.713Z,11.54
2022-09-30T18:55:54.023Z,11.51
2022-09-30T18:58:21.735Z,11.48
2022-09-30T19:00:48.072Z,11.47
2022-09-30T19:03:14.352Z,11.46
2022-09-30T19:05:40.757Z,11.47
2022-09-30T19:08:07.115Z,11.49
2022-09-30T19:10:33.417Z,11.50
2022-09-30T19:12:59.706Z,11.55
2022-09-30T19:15:27.391Z,11.57
2022-09-30T19:17:53.677Z,11.57
2022-09-30T19:20:19.997Z,11.61
2022-09-30T19:22:46.306Z,11.63
2022-09-30T19:25:12.751Z,11.63
2022-09-30T19:27:39.821Z,11.62
2022-09-30T19:30:06.805Z,11.66
2022-09-30T19:32:34.488Z,11.73
2022-09-30T19:35:05.923Z,11.77
2022-09-30T19:37:32.827Z,11.79
2022-09-30T19:40:05.597Z,11.84
2022-09-30T19:42:35.966Z,11.88
2022-09-30T19:45:02.258Z,11.90
2022-09-30T19:47:33.549Z,11.94
2022-09-30T19:50:01.928Z,11.99
2022-09-30T19:52:28.196Z,11.98
2022-09-30T19:54:55.272Z,11.98
2022-09-30T19:57:23.015Z,11.98
2022-09-30T19:59:49.521Z,12.02
2022-09-30T20:02:15.869Z,12.05
2022-09-30T20:04:42.156Z,12.08
2022-09-30T20:07:09.772Z,12.07
2022-09-30T20:09:36.063Z,12.14
2022-09-30T20:12:02.374Z,12.17
2022-09-30T20:14:28.693Z,12.20
2022-09-30T20:16:55.380Z,12.24
2022-09-30T20:19:21.802Z,12.20
2022-09-30T20:21:48.435Z,12.25
2022-09-30T20:24:16.865Z,12.24
2022-09-30T20:26:43.964Z,12.25
2022-09-30T20:29:10.653Z,12.23
2022-09-30T20:31:37.535Z,12.23
2022-09-30T20:34:04.445Z,12.24
2022-09-30T20:36:31.405Z,12.24
2022-09-30T20:39:00.677Z,12.29
2022-09-30T20:41:28.913Z,12.25
2022-09-30T20:43:55.237Z,12.30
2022-09-30T20:46:22.393Z,12.27
2022-09-30T20:48:49.031Z,12.23
2022-09-30T20:51:17.431Z,12.26
2022-09-30T20:53:48.708Z,12.32
2022-09-30T20:56:15.357Z,12.29
2022-09-30T20:58:42.955Z,12.33
2022-09-30T21:01:10.210Z,12.30
2022-09-30T21:03:37.450Z,12.31
2022-09-30T21:06:04.282Z,12.28
2022-09-30T21:08:30.783Z,12.29
2022-09-30T21:11:01.399Z,12.32
2022-09-30T21:13:27.702Z,12.31
2022-09-30T21:15:59.358Z,12.29
2022-09-30T21:18:25.698Z,12.36
2022-09-30T21:20:54.691Z,12.36
2022-09-30T21:23:20.975Z,12.36
2022-09-30T21:25:47.237Z,12.33
2022-09-30T21:28:13.591Z,12.31
2022-09-30T21:30:39.930Z,12.33
2022-09-30T21:33:07.560Z,12.34
2022-09-30T21:35:33.868Z,12.32
2022-09-30T21:38:00.133Z,12.34
2022-09-30T21:40:26.403Z,12.36
2022-09-30T21:42:52.686Z,12.39
2022-09-30T21:45:18.974Z,12.44
2022-09-30T21:47:45.270Z,12.47
2022-09-30T21:50:12.904Z,12.53
2022-09-30T21:52:39.231Z,12.55
2022-09-30T21:55:05.703Z,12.57
2022-09-30T21:57:32.008Z,12.57
2022-09-30T21:59:58.321Z,12.61
2022-09-30T22:02:24.715Z,12.60
2022-09-30T22:04:51.086Z,12.65
2022-09-30T22:07:18.723Z,12.68
2022-09-30T22:09:45.017Z,12.82
2022-09-30T22:12:11.309Z,12.82
2022-09-30T22:14:37.688Z,12.80
2022-09-30T22:17:04.460Z,12.83
2022-09-30T22:19:30.738Z,12.88
2022-09-30T22:21:57.004Z,12.82
2022-09-30T22:24:24.624Z,12.81
2022-09-30T22:26:50.897Z,12.83
2022-09-30T22:29:17.201Z,12.86
2022-09-30T22:31:43.528Z,12.85
2022-09-30T22:34:12.277Z,12.87
2022-09-30T22:36:38.776Z,12.84
2022-09-30T22:39:05.209Z,12.80
2022-09-30T22:41:33.113Z,12.76
2022-09-30T22:43:59.587Z,12.72
2022-09-30T22:46:26.282Z,12.67
2022-09-30T22:48:52.701Z,12.62
2022-09-30T22:51:18.981Z,12.53
2022-09-30T22:53:45.286Z,12.49
2022-09-30T22:56:11.565Z,12.46
2022-09-30T22:58:39.166Z,12.42
2022-09-30T23:01:05.445Z,12.38
2022-09-30T23:03:31.773Z,12.29
2022-09-30T23:06:01.520Z,12.39
2022-09-30T23:08:28.884Z,12.27
2022-09-30T23:10:55.190Z,12.15
2022-09-30T23:13:21.474Z,12.08
2022-09-30T23:15:49.119Z,12.07
2022-09-30T23:18:15.650Z,12.04
2022-09-30T23:20:41.942Z,11.99
2022-09-30T23:23:08.246Z,11.90
2022-09-30T23:25:34.533Z,11.87
2022-09-30T23:28:01.151Z,11.97
2022-09-30T23:30:27.484Z,11.87
2022-09-30T23:32:55.125Z,11.79
2022-09-30T23:35:21.422Z,11.71
2022-09-30T23:37:49.656Z,11.68
2022-09-30T23:40:16.095Z,11.67
2022-09-30T23:42:42.386Z,11.72
2022-09-30T23:45:09.051Z,11.61
2022-09-30T23:47:35.362Z,11.67
2022-09-30T23:50:03.102Z,11.60
2022-09-30T23:52:29.387Z,11.60
2022-09-30T23:54:55.686Z,11.58
2022-09-30T23:57:21.978Z,11.52
2022-09-30T23:59:48.252Z,11.56
